sensor_id;sensor_type;location;lat;lon;timestamp;pressure;altitude;pressure_sealevel;temperature;humidity
14790;BME280;7486;51.010;10.366;2023-03-22T00:01:21;97979.41;;;5.67;77.93
14790;BME280;7486;51.010;10.366;2023-03-22T00:04:08;97974.50;;;5.50;78.40
14790;BME280;7486;51.010;10.366;2023-03-22T00:06:53;97978.47;;;5.46;78.96
14790;BME280;7486;51.010;10.366;2023-03-22T00:09:38;97978.03;;;5.57;78.37
14790;BME280;7486;51.010;10.366;2023-03-22T00:12:23;97973.97;;;5.54;78.54
14790;BME280;7486;51.010;10.366;2023-03-22T00:15:09;97905.09;;;5.15;78.36
14790;BME280;7486;51.010;10.366;2023-03-22T00:17:55;97974.16;;;5.67;77.72
14790;BME280;7486;51.010;10.366;2023-03-22T00:20:55;97967.25;;;5.66;77.03
14790;BME280;7486;51.010;10.366;2023-03-22T00:23:42;97967.19;;;5.75;76.92
14790;BME280;7486;51.010;10.366;2023-03-22T00:26:27;97969.81;;;5.75;77.12
14790;BME280;7486;51.010;10.366;2023-03-22T00:29:12;97961.03;;;5.67;77.26
14790;BME280;7486;51.010;10.366;2023-03-22T00:31:58;97962.19;;;5.80;76.49
14790;BME280;7486;51.010;10.366;2023-03-22T00:34:43;97965.25;;;5.68;77.30
14790;BME280;7486;51.010;10.366;2023-03-22T00:37:29;97965.38;;;5.75;77.13
14790;BME280;7486;51.010;10.366;2023-03-22T00:40:14;97961.13;;;5.74;76.54
14790;BME280;7486;51.010;10.366;2023-03-22T00:43:02;97954.03;;;5.45;78.26
14790;BME280;7486;51.010;10.366;2023-03-22T00:45:47;97956.50;;;5.61;77.88
14790;BME280;7486;51.010;10.366;2023-03-22T00:48:33;97947.63;;;5.48;78.25
14790;BME280;7486;51.010;10.366;2023-03-22T00:51:18;97919.69;;;5.32;79.23
14790;BME280;7486;51.010;10.366;2023-03-22T00:54:04;97945.16;;;5.46;79.58
14790;BME280;7486;51.010;10.366;2023-03-22T00:56:49;97946.16;;;5.31;80.91
14790;BME280;7486;51.010;10.366;2023-03-22T00:59:34;97934.81;;;5.45;80.13
14790;BME280;7486;51.010;10.366;2023-03-22T01:02:20;97899.66;;;5.31;80.35
14790;BME280;7486;51.010;10.366;2023-03-22T01:05:06;97928.03;;;5.50;79.98
14790;BME280;7486;51.010;10.366;2023-03-22T01:07:51;97933.72;;;5.39;80.31
14790;BME280;7486;51.010;10.366;2023-03-22T01:10:37;97935.00;;;5.29;81.00
14790;BME280;7486;51.010;10.366;2023-03-22T01:13:24;97883.28;;;5.14;79.90
14790;BME280;7486;51.010;10.366;2023-03-22T01:16:09;97936.34;;;5.39;81.04
14790;BME280;7486;51.010;10.366;2023-03-22T01:18:55;97937.72;;;5.50;79.70
14790;BME280;7486;51.010;10.366;2023-03-22T01:21:40;97942.00;;;5.51;79.80
14790;BME280;7486;51.010;10.366;2023-03-22T01:24:26;97937.28;;;5.46;80.25
14790;BME280;7486;51.010;10.366;2023-03-22T01:27:12;97931.19;;;5.46;80.61
14790;BME280;7486;51.010;10.366;2023-03-22T01:29:57;97926.75;;;5.46;80.42
14790;BME280;7486;51.010;10.366;2023-03-22T01:32:42;97931.47;;;5.65;79.63
14790;BME280;7486;51.010;10.366;2023-03-22T01:35:28;97924.13;;;5.76;78.43
14790;BME280;7486;51.010;10.366;2023-03-22T01:38:13;97917.25;;;5.75;78.24
14790;BME280;7486;51.010;10.366;2023-03-22T01:41:07;97911.34;;;5.73;78.16
14790;BME280;7486;51.010;10.366;2023-03-22T01:44:13;97913.81;;;5.74;77.36
14790;BME280;7486;51.010;10.366;2023-03-22T01:46:59;97910.91;;;5.84;77.41
14790;BME280;7486;51.010;10.366;2023-03-22T01:49:45;97904.44;;;5.86;77.55
14790;BME280;7486;51.010;10.366;2023-03-22T01:52:30;97903.75;;;5.78;77.15
14790;BME280;7486;51.010;10.366;2023-03-22T01:55:21;97899.75;;;5.82;76.94
14790;BME280;7486;51.010;10.366;2023-03-22T01:58:15;97879.28;;;5.77;77.40
14790;BME280;7486;51.010;10.366;2023-03-22T02:01:07;97900.91;;;5.94;77.04
14790;BME280;7486;51.010;10.366;2023-03-22T02:04:10;97808.84;;;5.37;76.36
14790;BME280;7486;51.010;10.366;2023-03-22T02:06:57;97885.91;;;5.73;76.85
14790;BME280;7486;51.010;10.366;2023-03-22T02:09:46;97887.91;;;5.71;76.85
14790;BME280;7486;51.010;10.366;2023-03-22T02:44:55;97874.03;;;5.77;76.08
14790;BME280;7486;51.010;10.366;2023-03-22T02:50:36;97856.75;;;5.53;75.77
14790;BME280;7486;51.010;10.366;2023-03-22T02:53:28;97875.75;;;5.55;76.87
14790;BME280;7486;51.010;10.366;2023-03-22T02:56:24;97804.16;;;5.17;76.59
14790;BME280;7486;51.010;10.366;2023-03-22T02:59:12;97874.03;;;5.62;76.77
14790;BME280;7486;51.010;10.366;2023-03-22T03:02:00;97872.22;;;5.63;76.59
14790;BME280;7486;51.010;10.366;2023-03-22T03:04:50;97876.84;;;5.61;76.27
14790;BME280;7486;51.010;10.366;2023-03-22T03:07:37;97850.97;;;5.43;76.48
14790;BME280;7486;51.010;10.366;2023-03-22T03:10:24;97851.03;;;5.21;78.02
14790;BME280;7486;51.010;10.366;2023-03-22T03:13:15;97863.63;;;5.54;77.22
14790;BME280;7486;51.010;10.366;2023-03-22T03:16:02;97866.88;;;5.56;76.98
14790;BME280;7486;51.010;10.366;2023-03-22T03:18:58;97868.53;;;5.57;77.00
14790;BME280;7486;51.010;10.366;2023-03-22T03:24:47;97868.78;;;5.62;76.20
14790;BME280;7486;51.010;10.366;2023-03-22T03:27:41;97802.88;;;5.13;76.63
14790;BME280;7486;51.010;10.366;2023-03-22T03:30:46;97869.88;;;5.53;77.39
14790;BME280;7486;51.010;10.366;2023-03-22T03:33:35;97866.88;;;5.56;76.95
14790;BME280;7486;51.010;10.366;2023-03-22T03:36:24;97798.78;;;5.11;77.34
14790;BME280;7486;51.010;10.366;2023-03-22T03:39:13;97858.94;;;5.50;77.44
14790;BME280;7486;51.010;10.366;2023-03-22T03:42:01;97865.63;;;5.23;79.03
14790;BME280;7486;51.010;10.366;2023-03-22T03:44:48;97872.50;;;5.24;78.91
14790;BME280;7486;51.010;10.366;2023-03-22T03:47:35;97864.75;;;5.31;78.90
14790;BME280;7486;51.010;10.366;2023-03-22T03:50:20;97864.91;;;5.29;78.69
14790;BME280;7486;51.010;10.366;2023-03-22T03:53:06;97868.53;;;5.28;78.44
14790;BME280;7486;51.010;10.366;2023-03-22T03:55:51;97837.38;;;5.25;78.38
14790;BME280;7486;51.010;10.366;2023-03-22T03:58:37;97866.19;;;5.48;77.88
14790;BME280;7486;51.010;10.366;2023-03-22T04:01:22;97869.59;;;5.48;77.05
14790;BME280;7486;51.010;10.366;2023-03-22T04:04:20;97866.28;;;5.40;77.87
14790;BME280;7486;51.010;10.366;2023-03-22T04:07:11;97811.34;;;5.01;77.30
14790;BME280;7486;51.010;10.366;2023-03-22T04:09:56;97867.38;;;5.31;77.62
14790;BME280;7486;51.010;10.366;2023-03-22T04:12:47;97862.00;;;5.24;77.82
14790;BME280;7486;51.010;10.366;2023-03-22T04:15:34;97866.19;;;5.33;77.58
14790;BME280;7486;51.010;10.366;2023-03-22T04:18:24;97857.94;;;5.36;77.56
14790;BME280;7486;51.010;10.366;2023-03-22T04:21:12;97823.19;;;5.20;77.31
14790;BME280;7486;51.010;10.366;2023-03-22T04:24:05;97861.09;;;5.46;76.83
14790;BME280;7486;51.010;10.366;2023-03-22T04:26:54;97854.41;;;5.44;76.82
14790;BME280;7486;51.010;10.366;2023-03-22T04:29:55;97852.22;;;5.47;77.39
14790;BME280;7486;51.010;10.366;2023-03-22T04:33:02;97838.19;;;5.40;77.76
14790;BME280;7486;51.010;10.366;2023-03-22T04:36:03;97824.41;;;5.38;77.77
14790;BME280;7486;51.010;10.366;2023-03-22T04:39:08;97830.84;;;5.50;77.79
14790;BME280;7486;51.010;10.366;2023-03-22T04:41:53;97829.22;;;5.49;77.08
14790;BME280;7486;51.010;10.366;2023-03-22T04:44:39;97817.28;;;5.32;77.49
14790;BME280;7486;51.010;10.366;2023-03-22T04:47:25;97821.72;;;5.32;78.74
14790;BME280;7486;51.010;10.366;2023-03-22T04:50:10;97813.84;;;5.17;80.45
14790;BME280;7486;51.010;10.366;2023-03-22T04:53:07;97813.38;;;5.13;81.33
14790;BME280;7486;51.010;10.366;2023-03-22T04:55:54;97815.34;;;5.11;82.08
14790;BME280;7486;51.010;10.366;2023-03-22T04:58:40;97812.84;;;5.33;80.95
14790;BME280;7486;51.010;10.366;2023-03-22T05:01:26;97826.34;;;5.44;80.09
14790;BME280;7486;51.010;10.366;2023-03-22T05:04:22;97749.03;;;5.03;80.07
14790;BME280;7486;51.010;10.366;2023-03-22T05:07:13;97811.28;;;5.53;79.84
14790;BME280;7486;51.010;10.366;2023-03-22T05:10:05;97814.34;;;5.56;79.82
14790;BME280;7486;51.010;10.366;2023-03-22T05:12:51;97815.63;;;5.60;79.48
14790;BME280;7486;51.010;10.366;2023-03-22T05:15:49;97815.25;;;5.63;79.28
14790;BME280;7486;51.010;10.366;2023-03-22T05:18:37;97811.31;;;5.74;79.56
14790;BME280;7486;51.010;10.366;2023-03-22T05:21:24;97807.44;;;5.70;79.09
14790;BME280;7486;51.010;10.366;2023-03-22T05:24:11;97814.03;;;5.81;78.80
14790;BME280;7486;51.010;10.366;2023-03-22T05:26:59;97818.47;;;5.80;78.39
14790;BME280;7486;51.010;10.366;2023-03-22T05:29:44;97764.91;;;5.45;78.14
14790;BME280;7486;51.010;10.366;2023-03-22T05:32:36;97813.41;;;5.79;78.60
14790;BME280;7486;51.010;10.366;2023-03-22T05:35:21;97808.16;;;5.79;78.39
14790;BME280;7486;51.010;10.366;2023-03-22T05:38:10;97813.03;;;5.82;78.55
14790;BME280;7486;51.010;10.366;2023-03-22T05:41:00;97812.66;;;5.85;77.81
14790;BME280;7486;51.010;10.366;2023-03-22T05:43:48;97807.78;;;5.82;77.55
14790;BME280;7486;51.010;10.366;2023-03-22T05:46:35;97806.59;;;5.84;77.20
14790;BME280;7486;51.010;10.366;2023-03-22T05:49:42;97815.00;;;5.80;77.20
14790;BME280;7486;51.010;10.366;2023-03-22T05:52:27;97826.28;;;5.74;77.69
14790;BME280;7486;51.010;10.366;2023-03-22T05:55:33;97824.56;;;5.66;78.47
14790;BME280;7486;51.010;10.366;2023-03-22T05:58:21;97823.94;;;5.64;78.52
14790;BME280;7486;51.010;10.366;2023-03-22T06:01:10;97782.59;;;5.22;79.22
14790;BME280;7486;51.010;10.366;2023-03-22T06:04:04;97823.06;;;5.42;79.78
14790;BME280;7486;51.010;10.366;2023-03-22T06:07:01;97824.25;;;5.54;80.10
14790;BME280;7486;51.010;10.366;2023-03-22T06:10:14;97754.78;;;5.28;79.31
14790;BME280;7486;51.010;10.366;2023-03-22T06:13:00;97814.41;;;5.78;78.46
14790;BME280;7486;51.010;10.366;2023-03-22T06:15:48;97818.28;;;5.82;77.95
14790;BME280;7486;51.010;10.366;2023-03-22T06:18:37;97821.16;;;5.87;78.09
14790;BME280;7486;51.010;10.366;2023-03-22T06:21:27;97832.63;;;6.00;78.18
14790;BME280;7486;51.010;10.366;2023-03-22T06:24:13;97774.47;;;5.67;77.76
14790;BME280;7486;51.010;10.366;2023-03-22T06:26:58;97836.34;;;6.06;77.59
14790;BME280;7486;51.010;10.366;2023-03-22T06:29:45;97835.78;;;6.10;77.85
14790;BME280;7486;51.010;10.366;2023-03-22T06:32:30;97831.59;;;6.16;77.76
14790;BME280;7486;51.010;10.366;2023-03-22T06:35:16;97804.53;;;6.01;78.08
14790;BME280;7486;51.010;10.366;2023-03-22T06:38:03;97847.38;;;6.16;78.14
14790;BME280;7486;51.010;10.366;2023-03-22T06:40:50;97851.00;;;6.15;79.52
14790;BME280;7486;51.010;10.366;2023-03-22T06:43:35;97851.50;;;6.25;79.17
14790;BME280;7486;51.010;10.366;2023-03-22T06:46:37;97850.00;;;6.37;78.96
14790;BME280;7486;51.010;10.366;2023-03-22T06:49:31;97844.13;;;6.35;78.94
14790;BME280;7486;51.010;10.366;2023-03-22T06:52:16;97844.28;;;6.34;81.03
14790;BME280;7486;51.010;10.366;2023-03-22T06:55:02;97838.91;;;6.42;81.53
14790;BME280;7486;51.010;10.366;2023-03-22T06:57:48;97840.47;;;6.57;80.63
14790;BME280;7486;51.010;10.366;2023-03-22T07:00:34;97839.03;;;6.55;80.10
14790;BME280;7486;51.010;10.366;2023-03-22T07:03:20;97852.75;;;6.72;81.20
14790;BME280;7486;51.010;10.366;2023-03-22T07:06:12;97846.69;;;6.99;80.28
14790;BME280;7486;51.010;10.366;2023-03-22T07:09:01;97837.03;;;7.12;78.26
14790;BME280;7486;51.010;10.366;2023-03-22T07:11:50;97838.34;;;7.23;78.18
14790;BME280;7486;51.010;10.366;2023-03-22T07:14:36;97824.66;;;7.06;78.24
14790;BME280;7486;51.010;10.366;2023-03-22T07:17:35;97777.56;;;6.90;77.54
14790;BME280;7486;51.010;10.366;2023-03-22T07:20:21;97837.44;;;7.44;77.24
14790;BME280;7486;51.010;10.366;2023-03-22T07:23:07;97839.34;;;7.56;77.58
14790;BME280;7486;51.010;10.366;2023-03-22T07:26:01;97837.78;;;7.75;77.21
14790;BME280;7486;51.010;10.366;2023-03-22T07:28:51;97783.56;;;7.46;76.80
14790;BME280;7486;51.010;10.366;2023-03-22T07:31:43;97827.09;;;7.96;76.45
14790;BME280;7486;51.010;10.366;2023-03-22T07:34:33;97823.31;;;8.12;75.97
14790;BME280;7486;51.010;10.366;2023-03-22T07:37:21;97817.44;;;8.10;75.34
14790;BME280;7486;51.010;10.366;2023-03-22T07:40:07;97812.91;;;7.97;75.06
14790;BME280;7486;51.010;10.366;2023-03-22T07:42:54;97819.66;;;8.13;74.68
14790;BME280;7486;51.010;10.366;2023-03-22T07:45:58;97812.41;;;8.28;75.54
14790;BME280;7486;51.010;10.366;2023-03-22T07:49:07;97809.34;;;8.31;74.29
14790;BME280;7486;51.010;10.366;2023-03-22T07:52:11;97808.13;;;8.34;73.28
14790;BME280;7486;51.010;10.366;2023-03-22T07:54:57;97800.03;;;8.42;73.79
14790;BME280;7486;51.010;10.366;2023-03-22T07:57:43;97800.03;;;8.42;73.93
14790;BME280;7486;51.010;10.366;2023-03-22T08:00:29;97788.44;;;8.36;73.67
14790;BME280;7486;51.010;10.366;2023-03-22T08:03:37;97793.13;;;8.54;72.92
14790;BME280;7486;51.010;10.366;2023-03-22T08:06:37;97798.41;;;8.87;71.73
14790;BME280;7486;51.010;10.366;2023-03-22T08:09:23;97776.06;;;8.69;71.34
14790;BME280;7486;51.010;10.366;2023-03-22T08:12:09;97785.00;;;8.55;72.66
14790;BME280;7486;51.010;10.366;2023-03-22T08:14:55;97781.75;;;8.80;72.48
14790;BME280;7486;51.010;10.366;2023-03-22T08:17:44;97791.25;;;9.00;70.94
14790;BME280;7486;51.010;10.366;2023-03-22T08:20:36;97777.94;;;9.33;69.62
14790;BME280;7486;51.010;10.366;2023-03-22T08:23:27;97785.22;;;9.57;70.11
14790;BME280;7486;51.010;10.366;2023-03-22T08:26:44;97775.47;;;9.51;68.29
14790;BME280;7486;51.010;10.366;2023-03-22T08:29:34;97774.69;;;9.44;69.68
14790;BME280;7486;51.010;10.366;2023-03-22T08:32:19;97725.91;;;9.40;69.44
14790;BME280;7486;51.010;10.366;2023-03-22T08:35:06;97765.66;;;9.65;68.50
14790;BME280;7486;51.010;10.366;2023-03-22T08:37:55;97765.63;;;9.71;69.62
14790;BME280;7486;51.010;10.366;2023-03-22T08:40:47;97764.78;;;9.78;68.07
14790;BME280;7486;51.010;10.366;2023-03-22T08:43:38;97767.53;;;9.96;69.00
14790;BME280;7486;51.010;10.366;2023-03-22T08:46:24;97751.13;;;10.12;68.30
14790;BME280;7486;51.010;10.366;2023-03-22T08:49:09;97747.03;;;10.16;68.09
14790;BME280;7486;51.010;10.366;2023-03-22T08:52:04;97745.53;;;10.27;69.50
14790;BME280;7486;51.010;10.366;2023-03-22T08:55:09;97746.78;;;10.73;66.55
14790;BME280;7486;51.010;10.366;2023-03-22T08:58:15;97749.50;;;10.67;67.09
14790;BME280;7486;51.010;10.366;2023-03-22T09:01:30;97753.94;;;10.91;66.34
14790;BME280;7486;51.010;10.366;2023-03-22T09:04:19;97746.56;;;10.75;65.28
14790;BME280;7486;51.010;10.366;2023-03-22T09:07:05;97737.94;;;10.61;66.73
14790;BME280;7486;51.010;10.366;2023-03-22T09:09:51;97741.69;;;10.72;65.32
14790;BME280;7486;51.010;10.366;2023-03-22T09:12:37;97735.28;;;10.61;66.28
14790;BME280;7486;51.010;10.366;2023-03-22T09:15:22;97740.59;;;10.80;65.47
14790;BME280;7486;51.010;10.366;2023-03-22T09:18:25;97729.72;;;10.88;66.06
14790;BME280;7486;51.010;10.366;2023-03-22T09:21:13;97725.91;;;11.02;65.31
14790;BME280;7486;51.010;10.366;2023-03-22T09:24:13;97713.38;;;11.27;66.30
14790;BME280;7486;51.010;10.366;2023-03-22T09:27:04;97694.06;;;11.38;63.92
14790;BME280;7486;51.010;10.366;2023-03-22T09:29:51;97521.94;;;10.11;65.49
14790;BME280;7486;51.010;10.366;2023-03-22T09:32:36;97719.66;;;11.14;62.65
14790;BME280;7486;51.010;10.366;2023-03-22T09:35:28;97721.03;;;10.81;62.15
14790;BME280;7486;51.010;10.366;2023-03-22T09:38:20;97712.66;;;10.84;61.01
14790;BME280;7486;51.010;10.366;2023-03-22T09:41:11;97712.69;;;10.34;62.57
14790;BME280;7486;51.010;10.366;2023-03-22T09:44:02;97719.31;;;10.43;61.82
14790;BME280;7486;51.010;10.366;2023-03-22T09:46:53;97699.97;;;10.43;62.53
14790;BME280;7486;51.010;10.366;2023-03-22T09:49:43;97715.50;;;10.39;63.45
14790;BME280;7486;51.010;10.366;2023-03-22T09:52:38;97709.97;;;10.16;62.85
14790;BME280;7486;51.010;10.366;2023-03-22T09:55:38;97713.88;;;9.82;63.13
14790;BME280;7486;51.010;10.366;2023-03-22T10:01:39;97719.03;;;10.02;64.62
14790;BME280;7486;51.010;10.366;2023-03-22T10:08:10;97714.22;;;9.92;62.30
14790;BME280;7486;51.010;10.366;2023-03-22T10:10:58;97727.41;;;9.67;62.23
14790;BME280;7486;51.010;10.366;2023-03-22T10:16:47;97712.81;;;9.90;62.97
14790;BME280;7486;51.010;10.366;2023-03-22T10:19:45;97699.09;;;10.24;63.94
14790;BME280;7486;51.010;10.366;2023-03-22T10:22:37;97703.38;;;10.75;63.65
14790;BME280;7486;51.010;10.366;2023-03-22T10:25:32;97691.16;;;11.10;58.42
14790;BME280;7486;51.010;10.366;2023-03-22T10:28:40;97644.94;;;10.69;58.87
14790;BME280;7486;51.010;10.366;2023-03-22T10:31:29;97677.47;;;10.95;56.79
14790;BME280;7486;51.010;10.366;2023-03-22T10:34:23;97679.38;;;10.88;56.50
14790;BME280;7486;51.010;10.366;2023-03-22T10:37:30;97674.53;;;10.85;57.55
14790;BME280;7486;51.010;10.366;2023-03-22T10:40:20;97654.56;;;11.18;57.93
14790;BME280;7486;51.010;10.366;2023-03-22T10:45:56;97658.56;;;11.39;57.10
14790;BME280;7486;51.010;10.366;2023-03-22T10:48:44;97628.88;;;11.01;57.62
14790;BME280;7486;51.010;10.366;2023-03-22T10:51:34;97636.09;;;10.76;57.77
14790;BME280;7486;51.010;10.366;2023-03-22T10:54:23;97661.00;;;10.75;57.49
14790;BME280;7486;51.010;10.366;2023-03-22T10:57:10;97669.97;;;10.73;57.38
14790;BME280;7486;51.010;10.366;2023-03-22T10:59:57;97654.38;;;10.84;57.92
14790;BME280;7486;51.010;10.366;2023-03-22T11:02:53;97676.78;;;11.17;58.30
14790;BME280;7486;51.010;10.366;2023-03-22T11:05:41;97674.31;;;11.04;56.36
14790;BME280;7486;51.010;10.366;2023-03-22T11:08:26;97676.53;;;10.71;56.98
14790;BME280;7486;51.010;10.366;2023-03-22T11:14:13;97636.88;;;10.40;58.93
14790;BME280;7486;51.010;10.366;2023-03-22T11:17:10;97679.53;;;10.93;59.09
14790;BME280;7486;51.010;10.366;2023-03-22T11:20:02;97667.72;;;11.25;58.36
14790;BME280;7486;51.010;10.366;2023-03-22T11:22:51;97659.16;;;11.41;57.41
14790;BME280;7486;51.010;10.366;2023-03-22T11:25:44;97646.97;;;11.22;57.46
14790;BME280;7486;51.010;10.366;2023-03-22T11:28:48;97650.53;;;10.98;57.28
14790;BME280;7486;51.010;10.366;2023-03-22T11:34:44;97633.28;;;11.07;57.25
14790;BME280;7486;51.010;10.366;2023-03-22T11:37:30;97630.97;;;10.99;57.35
14790;BME280;7486;51.010;10.366;2023-03-22T11:40:24;97633.53;;;11.35;55.15
14790;BME280;7486;51.010;10.366;2023-03-22T11:43:20;97617.03;;;11.03;54.17
14790;BME280;7486;51.010;10.366;2023-03-22T11:46:07;97641.94;;;11.32;55.18
14790;BME280;7486;51.010;10.366;2023-03-22T11:49:06;97645.22;;;11.16;56.44
14790;BME280;7486;51.010;10.366;2023-03-22T11:51:54;97605.25;;;10.99;54.67
14790;BME280;7486;51.010;10.366;2023-03-22T11:54:40;97650.19;;;11.24;54.90
14790;BME280;7486;51.010;10.366;2023-03-22T11:57:29;97643.59;;;11.63;54.71
14790;BME280;7486;51.010;10.366;2023-03-22T12:00:21;97624.22;;;11.44;54.04
14790;BME280;7486;51.010;10.366;2023-03-22T12:03:13;97622.44;;;11.27;53.85
14790;BME280;7486;51.010;10.366;2023-03-22T12:06:06;97636.09;;;11.12;53.86
14790;BME280;7486;51.010;10.366;2023-03-22T12:09:02;97628.97;;;10.94;54.27
14790;BME280;7486;51.010;10.366;2023-03-22T12:11:53;97626.13;;;10.96;54.66
14790;BME280;7486;51.010;10.366;2023-03-22T12:14:47;97623.81;;;10.99;55.00
14790;BME280;7486;51.010;10.366;2023-03-22T12:17:40;97535.63;;;10.44;55.68
14790;BME280;7486;51.010;10.366;2023-03-22T12:20:56;97620.72;;;11.32;54.45
14790;BME280;7486;51.010;10.366;2023-03-22T12:23:42;97603.47;;;11.83;53.44
14790;BME280;7486;51.010;10.366;2023-03-22T12:26:29;97564.81;;;11.63;52.24
14790;BME280;7486;51.010;10.366;2023-03-22T12:29:17;97610.06;;;12.03;51.95
14790;BME280;7486;51.010;10.366;2023-03-22T12:32:11;97602.78;;;11.87;52.05
14790;BME280;7486;51.010;10.366;2023-03-22T12:34:59;97605.66;;;11.86;54.03
14790;BME280;7486;51.010;10.366;2023-03-22T12:41:40;97606.72;;;11.96;51.25
14790;BME280;7486;51.010;10.366;2023-03-22T12:44:42;97598.19;;;12.17;52.07
14790;BME280;7486;51.010;10.366;2023-03-22T12:47:40;97603.13;;;11.67;53.45
14790;BME280;7486;51.010;10.366;2023-03-22T12:51:00;97603.25;;;11.84;51.66
14790;BME280;7486;51.010;10.366;2023-03-22T12:53:54;97545.13;;;11.41;53.36
14790;BME280;7486;51.010;10.366;2023-03-22T12:56:42;97598.41;;;11.81;52.87
14790;BME280;7486;51.010;10.366;2023-03-22T12:59:29;97598.66;;;11.91;52.52
14790;BME280;7486;51.010;10.366;2023-03-22T13:05:06;97606.72;;;11.85;52.12
14790;BME280;7486;51.010;10.366;2023-03-22T13:07:53;97608.22;;;11.81;53.47
14790;BME280;7486;51.010;10.366;2023-03-22T13:10:47;97601.38;;;11.73;52.17
14790;BME280;7486;51.010;10.366;2023-03-22T13:13:42;97610.66;;;11.94;52.58
14790;BME280;7486;51.010;10.366;2023-03-22T13:17:00;97598.19;;;12.06;50.88
14790;BME280;7486;51.010;10.366;2023-03-22T13:25:38;97612.03;;;11.96;50.72
14790;BME280;7486;51.010;10.366;2023-03-22T13:28:53;97588.34;;;11.71;51.12
14790;BME280;7486;51.010;10.366;2023-03-22T13:35:45;97598.19;;;12.06;50.10
14790;BME280;7486;51.010;10.366;2023-03-22T13:38:41;97600.31;;;11.62;49.73
14790;BME280;7486;51.010;10.366;2023-03-22T13:41:29;97598.34;;;11.58;50.87
14790;BME280;7486;51.010;10.366;2023-03-22T13:44:25;97585.94;;;11.93;51.69
14790;BME280;7486;51.010;10.366;2023-03-22T13:47:45;97597.84;;;12.14;51.82
14790;BME280;7486;51.010;10.366;2023-03-22T13:50:32;97593.47;;;12.08;51.24
14790;BME280;7486;51.010;10.366;2023-03-22T13:53:28;97581.22;;;11.84;51.25
14790;BME280;7486;51.010;10.366;2023-03-22T13:56:27;97583.28;;;11.70;52.56
14790;BME280;7486;51.010;10.366;2023-03-22T14:02:27;97572.09;;;12.03;51.55
14790;BME280;7486;51.010;10.366;2023-03-22T14:05:17;97563.56;;;11.89;51.43
14790;BME280;7486;51.010;10.366;2023-03-22T14:08:04;97576.97;;;12.17;51.39
14790;BME280;7486;51.010;10.366;2023-03-22T14:11:14;97564.59;;;12.00;51.58
14790;BME280;7486;51.010;10.366;2023-03-22T14:14:05;97558.03;;;12.14;51.24
14790;BME280;7486;51.010;10.366;2023-03-22T14:17:12;97541.31;;;11.90;50.72
14790;BME280;7486;51.010;10.366;2023-03-22T14:20:01;97557.81;;;12.04;50.82
14790;BME280;7486;51.010;10.366;2023-03-22T14:22:55;97559.63;;;11.68;51.98
14790;BME280;7486;51.010;10.366;2023-03-22T14:25:41;97556.06;;;11.75;52.13
14790;BME280;7486;51.010;10.366;2023-03-22T14:28:36;97564.25;;;11.96;51.76
14790;BME280;7486;51.010;10.366;2023-03-22T14:31:25;97556.06;;;12.09;51.57
14790;BME280;7486;51.010;10.366;2023-03-22T14:34:14;97554.78;;;12.35;51.84
14790;BME280;7486;51.010;10.366;2023-03-22T14:37:01;97548.66;;;12.46;50.55
14790;BME280;7486;51.010;10.366;2023-03-22T14:39:47;97544.13;;;12.47;50.23
14790;BME280;7486;51.010;10.366;2023-03-22T14:42:32;97547.84;;;12.34;50.43
14790;BME280;7486;51.010;10.366;2023-03-22T14:45:18;97554.81;;;12.12;52.38
14790;BME280;7486;51.010;10.366;2023-03-22T14:48:18;97543.03;;;11.85;52.33
14790;BME280;7486;51.010;10.366;2023-03-22T14:51:06;97537.72;;;11.73;53.36
14790;BME280;7486;51.010;10.366;2023-03-22T14:53:51;97536.22;;;11.89;53.73
14790;BME280;7486;51.010;10.366;2023-03-22T14:56:37;97522.84;;;11.72;52.75
14790;BME280;7486;51.010;10.366;2023-03-22T14:59:23;97535.28;;;11.71;53.35
14790;BME280;7486;51.010;10.366;2023-03-22T15:05:17;97528.97;;;11.84;53.20
14790;BME280;7486;51.010;10.366;2023-03-22T15:08:07;97535.88;;;11.97;51.77
14790;BME280;7486;51.010;10.366;2023-03-22T15:10:55;97535.53;;;12.05;53.28
14790;BME280;7486;51.010;10.366;2023-03-22T15:13:41;97535.16;;;12.24;51.26
14790;BME280;7486;51.010;10.366;2023-03-22T15:16:31;97531.00;;;12.17;52.36
14790;BME280;7486;51.010;10.366;2023-03-22T15:19:18;97533.06;;;12.27;50.80
14790;BME280;7486;51.010;10.366;2023-03-22T15:22:15;97530.66;;;12.13;51.39
14790;BME280;7486;51.010;10.366;2023-03-22T15:25:01;97530.91;;;11.89;52.02
14790;BME280;7486;51.010;10.366;2023-03-22T15:27:46;97530.69;;;11.90;52.36
14790;BME280;7486;51.010;10.366;2023-03-22T15:30:30;97529.53;;;11.98;52.42
14790;BME280;7486;51.010;10.366;2023-03-22T15:33:22;97523.53;;;12.14;51.80
14790;BME280;7486;51.010;10.366;2023-03-22T15:36:15;97512.56;;;11.87;50.62
14790;BME280;7486;51.010;10.366;2023-03-22T15:39:25;97519.38;;;11.95;50.71
14790;BME280;7486;51.010;10.366;2023-03-22T15:42:29;97468.53;;;11.63;50.42
14790;BME280;7486;51.010;10.366;2023-03-22T15:45:21;97525.38;;;11.90;50.28
14790;BME280;7486;51.010;10.366;2023-03-22T15:48:17;97512.47;;;11.94;50.19
14790;BME280;7486;51.010;10.366;2023-03-22T15:51:04;97477.16;;;11.82;49.68
14790;BME280;7486;51.010;10.366;2023-03-22T15:53:49;97522.03;;;12.18;49.93
14790;BME280;7486;51.010;10.366;2023-03-22T15:56:44;97518.56;;;12.06;49.96
14790;BME280;7486;51.010;10.366;2023-03-22T15:59:29;97525.38;;;12.02;49.96
14790;BME280;7486;51.010;10.366;2023-03-22T16:02:26;97524.69;;;11.95;50.67
14790;BME280;7486;51.010;10.366;2023-03-22T16:05:11;97482.47;;;11.70;50.72
14790;BME280;7486;51.010;10.366;2023-03-22T16:07:55;97522.59;;;11.97;51.14
14790;BME280;7486;51.010;10.366;2023-03-22T16:10:41;97529.63;;;12.03;50.82
14790;BME280;7486;51.010;10.366;2023-03-22T16:13:26;97523.06;;;11.94;50.56
14790;BME280;7486;51.010;10.366;2023-03-22T16:16:14;97514.06;;;12.18;50.66
14790;BME280;7486;51.010;10.366;2023-03-22T16:18:59;97516.25;;;12.09;50.94
14790;BME280;7486;51.010;10.366;2023-03-22T16:21:43;97526.19;;;11.91;51.70
14790;BME280;7486;51.010;10.366;2023-03-22T16:24:27;97524.34;;;12.14;51.19
14790;BME280;7486;51.010;10.366;2023-03-22T16:27:18;97533.75;;;12.34;50.41
14790;BME280;7486;51.010;10.366;2023-03-22T16:30:03;97525.38;;;12.02;50.54